North Branford, Connecticut
Current Conditions -  °F | °C
As of 7:53 AM on Saturday 22 Nov 2014 (Local Time) from KHVN Reporting Station
Few Clouds Few Clouds  
Wind Chill: 26°   Ceiling: Unl
Heat Index: 32°   Visibility: 10mi
Dew Point: 14°   Wind: 6mph
Humidity: 47%   Direction: 250°WSW
Pressure: 30.46"   Gusts: NA
Location:  41.33°N, 72.77°W
Report Text: KHVN 221253Z 25005KT 10SM FEW250 00/M10 A3046 RMK AO2 SLP315 T00001100
Loading
Personal Weather Stations






























Interactive Weather Map New forecast layout! Learn more

10-Day Weather Forecast

Advertisements
Track Severe Weather on mobile